createdAt,value
2022-08-22T00:02:00.364Z,11.50
2022-08-22T00:02:56.464Z,8.07
2022-08-22T00:02:57.439Z,7.32
2022-08-22T00:02:59.391Z,10.23
2022-08-22T00:03:04.984Z,8.20
2022-08-22T00:04:41.678Z,12.23
2022-08-22T00:07:23.752Z,13.00
2022-08-22T00:10:03.768Z,13.80
2022-08-22T00:12:37.891Z,14.75
2022-08-22T00:15:42.956Z,15.00
2022-08-22T00:18:13.945Z,15.68
2022-08-22T00:20:52.051Z,15.73
2022-08-22T00:23:34.901Z,15.95
2022-08-22T00:26:03.051Z,16.27
2022-08-22T00:28:40.661Z,17.73
2022-08-22T00:31:35.826Z,17.85
2022-08-22T00:34:22.783Z,18.55
2022-08-22T00:37:04.956Z,19.13
2022-08-22T00:39:47.471Z,19.75
2022-08-22T00:42:41.682Z,20.07
2022-08-22T00:45:11.545Z,20.38
2022-08-22T00:47:56.653Z,22.02
2022-08-22T00:50:34.608Z,21.95
2022-08-22T00:53:33.432Z,22.95
2022-08-22T00:56:24.796Z,24.37
2022-08-22T00:59:22.671Z,24.45
2022-08-22T01:02:02.295Z,25.25
2022-08-22T01:04:58.708Z,25.70
2022-08-22T01:08:10.330Z,25.42
2022-08-22T01:11:01.994Z,25.40
2022-08-22T01:13:39.550Z,24.02
2022-08-22T01:16:23.081Z,25.13
2022-08-22T01:19:09.218Z,22.92
2022-08-22T01:21:39.198Z,23.80
2022-08-22T01:24:24.772Z,23.70
2022-08-22T01:27:10.657Z,20.88
2022-08-22T01:30:12.698Z,22.70
2022-08-22T01:33:13.334Z,23.35
2022-08-22T01:36:14.830Z,21.67
2022-08-22T01:39:00.250Z,22.03
2022-08-22T01:41:39.391Z,21.20
2022-08-22T01:44:37.391Z,19.75
2022-08-22T01:47:28.071Z,18.77
2022-08-22T01:50:37.540Z,18.88
2022-08-22T01:53:37.896Z,18.03
2022-08-22T01:56:18.249Z,19.05
2022-08-22T01:59:03.621Z,19.13
2022-08-22T02:01:59.313Z,19.02
2022-08-22T02:04:35.333Z,18.40
2022-08-22T02:07:02.265Z,27.87
2022-08-22T02:10:06.410Z,31.70
2022-08-22T02:12:42.547Z,36.33
2022-08-22T02:15:35.800Z,36.28
2022-08-22T02:18:05.740Z,34.70
2022-08-22T02:20:35.618Z,38.60
2022-08-22T02:23:18.008Z,38.95
2022-08-22T02:26:09.893Z,39.97
2022-08-22T02:28:56.679Z,39.08
2022-08-22T02:31:43.417Z,38.97
2022-08-22T02:34:38.417Z,36.93
2022-08-22T02:37:21.928Z,37.65
2022-08-22T02:40:10.614Z,36.80
2022-08-22T02:42:46.623Z,38.05
2022-08-22T02:45:22.149Z,40.78
2022-08-22T02:48:01.246Z,42.20
2022-08-22T02:50:31.110Z,44.05
2022-08-22T02:53:05.611Z,45.78
2022-08-22T02:56:08.912Z,45.03
2022-08-22T02:58:50.249Z,42.97
2022-08-22T03:01:41.153Z,42.80
2022-08-22T03:04:32.522Z,44.92
2022-08-22T03:07:21.118Z,45.15
2022-08-22T03:09:48.092Z,45.40
2022-08-22T03:12:33.143Z,45.40
2022-08-22T03:15:15.930Z,43.83
2022-08-22T03:17:50.889Z,45.00
2022-08-22T03:20:48.138Z,46.17
2022-08-22T03:23:39.352Z,45.00
2022-08-22T03:26:27.921Z,45.10
2022-08-22T03:29:11.813Z,44.50
2022-08-22T03:32:17.393Z,45.60
2022-08-22T03:35:03.872Z,45.70
2022-08-22T03:37:42.358Z,46.60
2022-08-22T03:40:46.159Z,47.00
2022-08-22T03:43:44.330Z,46.20
2022-08-22T03:46:47.097Z,48.95
2022-08-22T03:50:08.293Z,48.63
2022-08-22T03:53:15.261Z,47.63
2022-08-22T03:55:52.840Z,48.13
2022-08-22T03:58:29.496Z,47.00
2022-08-22T04:01:31.633Z,47.85
2022-08-22T04:04:01.472Z,46.42
2022-08-22T04:06:53.638Z,46.25
2022-08-22T04:09:32.876Z,47.92
2022-08-22T04:12:31.868Z,47.53
2022-08-22T04:15:02.301Z,46.58
2022-08-22T04:18:01.076Z,48.58
2022-08-22T04:20:49.520Z,45.08
2022-08-22T04:23:34.622Z,47.45
2022-08-22T04:26:12.924Z,47.50
2022-08-22T04:28:50.987Z,50.22
2022-08-22T04:31:27.968Z,48.85
2022-08-22T04:34:02.354Z,47.75
2022-08-22T04:36:48.372Z,47.28
2022-08-22T04:39:21.975Z,47.17
2022-08-22T04:42:16.026Z,49.35
2022-08-22T04:45:12.421Z,47.25
2022-08-22T04:47:56.791Z,47.88
2022-08-22T04:50:43.002Z,46.90
2022-08-22T04:53:28.765Z,45.63
2022-08-22T04:56:07.610Z,49.47
2022-08-22T04:58:49.071Z,47.08
2022-08-22T05:01:28.215Z,48.88
2022-08-22T05:04:02.398Z,48.38
2022-08-22T05:06:32.571Z,51.17
2022-08-22T05:09:02.995Z,48.90
2022-08-22T05:11:31.934Z,50.63
2022-08-22T05:14:04.240Z,50.17
2022-08-22T05:16:42.136Z,51.40
2022-08-22T05:19:27.038Z,49.60
2022-08-22T05:21:57.884Z,50.03
2022-08-22T05:24:33.690Z,51.95
2022-08-22T05:27:11.361Z,53.22
2022-08-22T05:29:43.207Z,52.28
2022-08-22T05:32:23.111Z,50.63
2022-08-22T05:34:55.152Z,53.08
2022-08-22T05:37:29.843Z,52.78
2022-08-22T05:39:59.246Z,51.95
2022-08-22T05:42:37.615Z,53.40
2022-08-22T05:45:12.207Z,53.80
2022-08-22T05:47:49.920Z,55.03
2022-08-22T05:50:50.397Z,55.10
2022-08-22T05:53:33.446Z,56.45
2022-08-22T05:56:06.705Z,55.70
2022-08-22T05:58:39.907Z,53.47
2022-08-22T06:01:28.244Z,54.60
2022-08-22T06:04:08.505Z,53.35
2022-08-22T06:06:46.819Z,54.53
2022-08-22T06:09:46.107Z,55.30
2022-08-22T06:12:29.551Z,54.03
2022-08-22T06:15:21.043Z,57.03
2022-08-22T06:17:57.829Z,57.72
2022-08-22T06:20:37.580Z,56.80
2022-08-22T06:23:07.891Z,57.45
2022-08-22T06:25:40.590Z,56.67
2022-08-22T06:28:13.901Z,58.28
2022-08-22T06:30:45.635Z,58.25
2022-08-22T06:33:17.301Z,57.47
2022-08-22T06:36:05.231Z,56.42
2022-08-22T06:38:56.443Z,55.73
2022-08-22T06:41:28.404Z,54.05
2022-08-22T06:43:57.742Z,56.40
2022-08-22T06:46:29.109Z,53.10
2022-08-22T06:49:02.184Z,53.72
2022-08-22T06:51:30.362Z,52.30
2022-08-22T06:54:02.396Z,53.05
2022-08-22T06:56:36.053Z,52.47
2022-08-22T06:59:13.907Z,51.95
2022-08-22T07:02:04.231Z,51.53
2022-08-22T07:04:32.055Z,51.33
2022-08-22T07:07:01.384Z,51.33
2022-08-22T07:09:34.227Z,49.20
2022-08-22T07:12:14.528Z,45.03
2022-08-22T07:15:10.074Z,45.65
2022-08-22T07:17:46.769Z,46.23
2022-08-22T07:20:23.811Z,44.20
2022-08-22T07:23:10.398Z,40.80
2022-08-22T07:25:49.299Z,39.85
2022-08-22T07:28:50.885Z,41.70
2022-08-22T07:31:44.123Z,39.57
2022-08-22T07:34:20.430Z,37.65
2022-08-22T07:36:56.758Z,38.13
2022-08-22T07:39:33.638Z,36.95
2022-08-22T07:42:08.910Z,38.92
2022-08-22T07:45:05.911Z,39.47
2022-08-22T07:48:07.156Z,37.40
2022-08-22T07:50:50.826Z,41.92
2022-08-22T07:53:35.238Z,40.72
2022-08-22T07:56:04.685Z,45.05
2022-08-22T07:58:35.356Z,42.93
2022-08-22T08:01:02.782Z,42.92
2022-08-22T08:03:31.350Z,46.58
2022-08-22T08:06:01.586Z,48.67
2022-08-22T08:08:44.489Z,46.88
2022-08-22T08:11:15.857Z,48.80
2022-08-22T08:13:47.076Z,47.03
2022-08-22T08:16:51.466Z,49.20
2022-08-22T08:19:26.318Z,48.15
2022-08-22T08:21:56.401Z,49.67
2022-08-22T08:24:36.174Z,46.73
2022-08-22T08:27:41.520Z,49.17
2022-08-22T08:30:15.404Z,51.25
2022-08-22T08:33:25.296Z,49.88
2022-08-22T08:36:02.482Z,51.33
2022-08-22T08:38:48.333Z,56.73
2022-08-22T08:41:31.134Z,53.90
2022-08-22T08:44:00.734Z,58.45
2022-08-22T08:46:58.911Z,51.03
2022-08-22T08:49:42.213Z,51.85
2022-08-22T08:52:39.293Z,52.90
2022-08-22T08:55:22.509Z,50.58
2022-08-22T08:58:17.745Z,51.22
2022-08-22T09:00:49.862Z,51.42
2022-08-22T09:03:31.085Z,49.40
2022-08-22T09:06:43.004Z,49.90
2022-08-22T09:09:35.888Z,50.03
2022-08-22T09:12:10.922Z,46.90
2022-08-22T09:15:14.161Z,44.15
2022-08-22T09:18:09.371Z,44.92
2022-08-22T09:20:46.480Z,44.20
2022-08-22T09:23:37.945Z,44.17
2022-08-22T09:26:23.912Z,43.60
2022-08-22T09:29:23.472Z,43.05
2022-08-22T09:37:04.005Z,41.07
2022-08-22T09:39:57.399Z,40.65
2022-08-22T09:42:35.473Z,38.15
2022-08-22T09:45:15.050Z,36.55
2022-08-22T09:47:59.009Z,36.00
2022-08-22T09:51:28.778Z,39.40
2022-08-22T09:54:31.501Z,41.13
2022-08-22T09:57:15.147Z,41.13
2022-08-22T10:29:46.065Z,23.35
2022-08-22T10:32:58.674Z,23.13
2022-08-22T10:36:11.727Z,19.90
2022-08-22T10:48:16.964Z,17.77
2022-08-22T10:51:12.260Z,16.35
2022-08-22T10:55:14.905Z,15.45
2022-08-22T10:59:25.328Z,13.40
2022-08-22T11:02:53.382Z,12.33
2022-08-22T11:05:44.926Z,8.98
2022-08-22T11:13:24.763Z,14.32
2022-08-22T11:16:29.380Z,13.85
2022-08-22T11:19:43.586Z,10.97
2022-08-22T11:22:48.146Z,11.35
2022-08-22T11:26:48.438Z,11.07
2022-08-22T11:30:02.318Z,10.02
2022-08-22T11:37:59.079Z,7.60
2022-08-22T11:40:52.330Z,7.60
2022-08-22T11:43:48.246Z,6.07
2022-08-22T11:46:32.319Z,9.27
2022-08-22T11:49:32.931Z,9.98
2022-08-22T11:52:09.854Z,9.47
2022-08-22T11:55:08.431Z,9.07
2022-08-22T11:57:52.867Z,7.78
2022-08-22T12:00:26.804Z,7.45
2022-08-22T12:03:24.796Z,5.80
2022-08-22T12:06:04.481Z,4.60
2022-08-22T12:08:34.318Z,3.88
2022-08-22T12:11:10.057Z,5.70
2022-08-22T12:13:49.999Z,5.82
2022-08-22T12:19:32.604Z,14.07
2022-08-22T12:22:00.068Z,14.68
2022-08-22T12:24:45.838Z,14.45
2022-08-22T12:27:28.649Z,14.90
2022-08-22T12:30:12.983Z,13.50
2022-08-22T12:33:23.583Z,13.03
2022-08-22T12:35:50.926Z,10.98
2022-08-22T12:39:03.502Z,8.80
2022-08-22T12:42:10.661Z,9.50
2022-08-22T12:45:02.591Z,8.52
2022-08-22T12:47:36.866Z,8.30
2022-08-22T12:50:33.656Z,7.20
2022-08-22T12:53:23.980Z,7.15
2022-08-22T12:56:21.219Z,6.63
2022-08-22T12:58:55.237Z,6.40
2022-08-22T13:01:33.839Z,6.00
2022-08-22T13:04:08.808Z,5.60
2022-08-22T13:06:41.049Z,5.47
2022-08-22T13:09:09.821Z,5.00
2022-08-22T13:11:41.435Z,5.25
2022-08-22T13:14:18.997Z,4.30
2022-08-22T13:16:55.677Z,4.00
2022-08-22T13:19:36.625Z,4.60
2022-08-22T13:22:20.274Z,4.43
2022-08-22T13:25:26.051Z,4.38
2022-08-22T13:28:08.551Z,3.80
2022-08-22T13:30:55.362Z,3.97
2022-08-22T13:33:52.269Z,4.25
2022-08-22T13:36:26.853Z,4.28
2022-08-22T13:39:24.562Z,4.18
2022-08-22T13:41:59.789Z,4.50
2022-08-22T13:44:44.060Z,4.10
2022-08-22T13:47:21.478Z,4.35
2022-08-22T13:50:26.185Z,4.47
2022-08-22T13:53:11.688Z,4.18
2022-08-22T13:56:17.746Z,4.93
2022-08-22T13:59:10.826Z,4.35
2022-08-22T14:02:34.111Z,4.15
2022-08-22T14:05:07.094Z,5.30
2022-08-22T14:08:12.511Z,4.85
2022-08-22T14:10:57.352Z,4.63
2022-08-22T14:13:31.970Z,4.13
2022-08-22T14:16:01.617Z,4.68
2022-08-22T14:18:36.607Z,4.50
2022-08-22T14:21:42.555Z,4.53
2022-08-22T14:24:20.173Z,4.80
2022-08-22T14:26:58.511Z,5.03
2022-08-22T14:29:31.803Z,4.82
2022-08-22T14:32:01.025Z,5.35
2022-08-22T14:34:32.122Z,4.35
2022-08-22T14:37:08.792Z,4.80
2022-08-22T14:39:46.315Z,4.68
2022-08-22T14:42:27.428Z,5.03
2022-08-22T14:45:08.743Z,5.05
2022-08-22T14:48:30.214Z,4.75
2022-08-22T14:50:56.574Z,4.73
2022-08-22T14:53:32.737Z,5.00
2022-08-22T14:56:32.996Z,5.13
2022-08-22T14:59:04.843Z,4.50
2022-08-22T15:01:53.230Z,4.60
2022-08-22T15:04:45.718Z,4.60
2022-08-22T15:07:27.549Z,4.32
2022-08-22T15:10:06.516Z,4.22
2022-08-22T15:12:40.633Z,4.57
2022-08-22T15:15:27.309Z,4.60
2022-08-22T15:17:55.370Z,4.90
2022-08-22T15:20:27.795Z,4.80
2022-08-22T15:23:22.053Z,4.38
2022-08-22T15:26:39.804Z,5.05
2022-08-22T15:29:17.824Z,4.60
2022-08-22T15:32:32.921Z,5.93
2022-08-22T15:35:31.558Z,4.40
2022-08-22T15:38:57.636Z,4.15
2022-08-22T15:41:36.960Z,4.18
2022-08-22T15:44:33.479Z,4.32
2022-08-22T15:47:38.135Z,4.53
2022-08-22T15:50:15.350Z,5.22
2022-08-22T15:53:08.929Z,5.03
2022-08-22T15:55:40.374Z,4.40
2022-08-22T15:58:21.594Z,4.38
2022-08-22T16:01:22.334Z,4.07
2022-08-22T16:04:38.301Z,4.50
2022-08-22T16:10:29.454Z,4.25
2022-08-22T16:13:21.197Z,4.60
2022-08-22T16:15:52.608Z,4.67
2022-08-22T16:18:33.775Z,5.15
2022-08-22T16:21:08.713Z,4.53
2022-08-22T16:23:54.175Z,3.83
2022-08-22T16:26:24.798Z,4.43
2022-08-22T16:29:02.311Z,4.70
2022-08-22T16:31:44.500Z,3.95
2022-08-22T16:34:20.471Z,4.38
2022-08-22T16:37:09.094Z,4.43
2022-08-22T16:39:49.614Z,4.72
2022-08-22T16:42:19.513Z,4.60
2022-08-22T16:44:47.833Z,4.75
2022-08-22T16:47:23.397Z,4.93
2022-08-22T16:49:50.457Z,4.95
2022-08-22T16:52:23.516Z,4.35
2022-08-22T16:54:53.867Z,4.50
2022-08-22T16:58:05.703Z,5.03
2022-08-22T17:00:33.649Z,5.38
2022-08-22T17:03:12.671Z,5.13
2022-08-22T17:06:18.187Z,4.95
2022-08-22T17:09:14.500Z,5.17
2022-08-22T17:12:26.162Z,5.75
2022-08-22T17:15:25.462Z,6.22
2022-08-22T17:18:26.076Z,5.90
2022-08-22T17:21:12.295Z,5.38
2022-08-22T17:23:56.119Z,5.47
2022-08-22T17:26:27.571Z,5.90
2022-08-22T17:29:20.860Z,5.78
2022-08-22T17:31:59.490Z,5.25
2022-08-22T17:34:45.696Z,5.50
2022-08-22T17:37:39.086Z,6.33
2022-08-22T17:40:41.849Z,5.63
2022-08-22T17:43:33.462Z,5.90
2022-08-22T17:46:30.800Z,6.22
2022-08-22T17:48:57.805Z,5.80
2022-08-22T17:51:42.526Z,6.10
2022-08-22T17:54:20.219Z,6.03
2022-08-22T17:56:55.758Z,6.25
2022-08-22T17:59:55.158Z,6.35
2022-08-22T18:02:40.323Z,6.22
2022-08-22T18:05:10.251Z,5.97
2022-08-22T18:07:51.838Z,6.13
2022-08-22T18:10:38.713Z,5.90
2022-08-22T18:13:15.408Z,6.82
2022-08-22T18:15:52.952Z,6.30
2022-08-22T18:18:40.140Z,6.43
2022-08-22T18:21:24.799Z,6.18
2022-08-22T18:24:04.295Z,6.15
2022-08-22T18:26:45.026Z,7.22
2022-08-22T18:29:17.022Z,6.20
2022-08-22T18:32:10.992Z,6.97
2022-08-22T18:35:02.655Z,6.80
2022-08-22T18:37:30.958Z,7.53
2022-08-22T18:40:22.408Z,6.95
2022-08-22T18:43:00.257Z,6.65
2022-08-22T18:49:15.888Z,6.30
2022-08-22T18:55:37.195Z,6.80
2022-08-22T18:58:34.528Z,6.50
2022-08-22T19:01:34.025Z,6.30
2022-08-22T19:04:35.258Z,6.63
2022-08-22T19:07:38.805Z,6.05
2022-08-22T19:10:22.683Z,6.40
2022-08-22T19:12:59.293Z,6.68
2022-08-22T19:15:51.894Z,7.37
2022-08-22T19:18:32.165Z,6.43
2022-08-22T19:21:45.108Z,7.13
2022-08-22T19:24:37.812Z,6.97
2022-08-22T19:27:31.117Z,7.88
2022-08-22T19:30:05.134Z,7.63
2022-08-22T19:32:51.276Z,8.40
2022-08-22T19:35:28.454Z,7.85
2022-08-22T19:38:03.758Z,8.40
2022-08-22T19:40:53.792Z,8.23
2022-08-22T19:44:44.672Z,10.27
2022-08-22T19:47:45.295Z,8.30
2022-08-22T19:50:20.698Z,9.25
2022-08-22T19:52:58.018Z,9.43
2022-08-22T19:55:30.984Z,8.95
2022-08-22T19:58:32.042Z,9.70
2022-08-22T20:01:20.967Z,9.65
2022-08-22T20:04:27.886Z,9.48
2022-08-22T20:07:26.504Z,10.57
2022-08-22T20:10:04.703Z,10.27
2022-08-22T20:13:00.999Z,11.13
2022-08-22T20:15:31.367Z,10.57
2022-08-22T20:18:47.180Z,10.90
2022-08-22T20:21:02.598Z,11.07
2022-08-22T20:23:32.258Z,10.90
2022-08-22T20:48:11.962Z,10.83
2022-08-22T20:50:39.087Z,10.73
2022-08-22T20:53:19.691Z,11.18
2022-08-22T20:55:57.314Z,11.10
2022-08-22T20:58:27.825Z,11.13
2022-08-22T21:01:00.255Z,11.60
2022-08-22T21:03:47.755Z,11.55
2022-08-22T21:06:22.166Z,11.43
2022-08-22T21:09:12.338Z,11.90
2022-08-22T21:11:50.352Z,11.23
2022-08-22T21:14:20.431Z,12.00
2022-08-22T21:16:47.778Z,12.32
2022-08-22T21:19:25.838Z,12.23
2022-08-22T21:21:53.618Z,12.70
2022-08-22T21:24:20.848Z,13.85
2022-08-22T21:26:59.005Z,13.03
2022-08-22T21:29:32.678Z,12.35
2022-08-22T21:32:13.624Z,13.60
2022-08-22T21:34:46.771Z,14.38
2022-08-22T21:37:25.288Z,14.65
2022-08-22T21:40:06.179Z,15.10
2022-08-22T21:42:40.024Z,14.73
2022-08-22T21:45:11.713Z,14.85
2022-08-22T21:47:42.830Z,16.50
2022-08-22T21:50:15.082Z,17.23
2022-08-22T21:52:59.803Z,17.23
2022-08-22T21:55:36.911Z,18.63
2022-08-22T21:58:34.179Z,17.75
2022-08-22T22:01:25.059Z,19.25
2022-08-22T22:03:55.341Z,20.00
2022-08-22T22:06:22.522Z,18.53
2022-08-22T22:08:49.681Z,19.20
2022-08-22T22:11:17.680Z,20.40
2022-08-22T22:13:45.191Z,19.27
2022-08-22T22:16:21.189Z,20.50
2022-08-22T22:18:50.361Z,19.90
2022-08-22T22:21:17.681Z,21.42
2022-08-22T22:23:44.960Z,21.10
2022-08-22T22:26:12.587Z,20.33
2022-08-22T22:28:47.807Z,21.83
2022-08-22T22:31:16.451Z,20.93
2022-08-22T22:33:43.702Z,21.35
2022-08-22T22:36:22.686Z,22.60
2022-08-22T22:38:51.698Z,22.27
2022-08-22T22:41:21.358Z,20.63
2022-08-22T22:43:48.324Z,20.97
2022-08-22T22:46:15.361Z,21.85
2022-08-22T22:48:42.355Z,21.58
2022-08-22T22:51:11.494Z,21.38
2022-08-22T22:53:42.789Z,20.77
2022-08-22T22:56:14.287Z,20.03
2022-08-22T22:58:43.891Z,21.10
2022-08-22T23:01:20.845Z,20.58
2022-08-22T23:03:52.305Z,21.35
2022-08-22T23:06:22.525Z,21.98
2022-08-22T23:08:49.787Z,21.17
2022-08-22T23:11:24.241Z,21.35
2022-08-22T23:14:02.704Z,23.17
2022-08-22T23:16:35.151Z,22.75
2022-08-22T23:19:09.316Z,22.17
2022-08-22T23:21:36.592Z,22.87
2022-08-22T23:24:04.127Z,22.63
2022-08-22T23:26:31.733Z,22.40
2022-08-22T23:28:59.352Z,23.27
2022-08-22T23:31:36.973Z,24.05
2022-08-22T23:34:08.054Z,25.13
2022-08-22T23:36:36.423Z,26.08
2022-08-22T23:39:05.732Z,27.42
2022-08-22T23:41:33.102Z,27.00
2022-08-22T23:44:00.272Z,26.77
2022-08-22T23:46:27.902Z,26.33
2022-08-22T23:48:58.683Z,25.63
2022-08-22T23:51:28.058Z,25.25
2022-08-22T23:53:58.116Z,25.52
2022-08-22T23:56:53.450Z,24.60
2022-08-22T23:59:23.415Z,24.63
